Time;durP1;ratioP1;P1;durP2;ratioP2;P2;SDS_P1;SDS_P2;PMS_P1;PMS_P2;Temp;Humidity;BMP_temperature;BMP_pressure;BME280_temperature;BME280_humidity;BME280_pressure;Samples;Min_cycle;Max_cycle;Signal;HPM_P1;HPM_P2
2023/05/13 00:00:40;;;;;;;12.50;11.10;;;11.30;99.90;;;;;;5112756;27;20405;-91
2023/05/13 00:03:06;;;;;;;12.37;11.17;;;11.10;99.90;;;;;;5113460;27;20405;-90
2023/05/13 00:05:32;;;;;;;12.82;11.63;;;11.20;99.90;;;;;;5113507;27;20446;-91
2023/05/13 00:08:00;;;;;;;12.70;11.38;;;11.00;99.90;;;;;;5112135;27;21039;-92
2023/05/13 00:10:26;;;;;;;13.35;12.02;;;11.00;99.90;;;;;;5114562;27;20431;-91
2023/05/13 00:12:52;;;;;;;15.63;13.18;;;11.00;99.90;;;;;;5115564;27;20901;-91
2023/05/13 00:15:17;;;;;;;13.37;11.97;;;10.90;99.90;;;;;;5117735;27;20405;-91
2023/05/13 00:17:43;;;;;;;13.70;12.43;;;11.10;99.90;;;;;;5115766;27;20476;-91
2023/05/13 00:20:09;;;;;;;14.40;12.93;;;10.90;99.90;;;;;;5117568;27;20393;-92
2023/05/13 00:22:34;;;;;;;14.47;12.97;;;10.90;99.90;;;;;;5116341;27;20804;-91
2023/05/13 00:25:00;;;;;;;14.77;13.35;;;10.90;99.90;;;;;;5116003;27;20431;-91
2023/05/13 00:27:25;;;;;;;14.53;13.13;;;10.90;99.90;;;;;;5134654;27;20449;-91
2023/05/13 00:29:51;;;;;;;14.53;13.13;;;10.90;99.90;;;;;;5115330;27;20396;-89
2023/05/13 00:32:17;;;;;;;14.65;13.25;;;10.90;99.90;;;;;;5117592;27;20450;-91
2023/05/13 00:34:42;;;;;;;14.67;13.17;;;10.90;99.90;;;;;;5115130;27;20405;-91
2023/05/13 00:37:09;;;;;;;14.38;12.82;;;11.00;99.90;;;;;;5117213;27;20408;-91
2023/05/13 00:39:35;;;;;;;15.50;14.00;;;10.90;99.90;;;;;;5115960;27;20396;-91
2023/05/13 00:42:03;;;;;;;17.03;15.43;;;10.80;99.90;;;;;;5116741;27;20408;-90
2023/05/13 00:44:29;;;;;;;16.63;15.05;;;10.90;99.90;;;;;;5116877;27;20473;-91
2023/05/13 00:46:55;;;;;;;17.43;15.67;;;10.90;99.90;;;;;;5115008;27;20397;-91
2023/05/13 00:49:21;;;;;;;17.05;15.32;;;10.80;99.90;;;;;;5116827;27;20726;-91
2023/05/13 00:51:47;;;;;;;16.83;15.05;;;10.80;99.90;;;;;;5114559;27;20392;-91
2023/05/13 00:54:12;;;;;;;16.33;14.82;;;10.80;99.90;;;;;;5116998;27;20767;-92
2023/05/13 00:56:38;;;;;;;17.95;16.10;;;10.80;99.90;;;;;;5114973;27;20405;-90
2023/05/13 00:59:04;;;;;;;16.43;14.73;;;10.80;99.90;;;;;;5116928;27;20393;-91
2023/05/13 01:01:58;;;;;;;18.02;16.23;;;10.80;99.90;;;;;;5115625;27;20401;-91
2023/05/13 01:04:53;;;;;;;18.73;16.93;;;10.80;99.90;;;;;;5114385;27;20495;-92
2023/05/13 01:07:30;;;;;;;17.87;16.20;;;11.10;99.90;;;;;;5099110;27;20405;-91
2023/05/13 01:10:11;;;;;;;17.60;15.88;;;10.90;99.90;;;;;;5114846;27;20397;-92
2023/05/13 01:12:43;;;;;;;17.37;15.70;;;10.70;99.90;;;;;;5115537;27;20403;-91
2023/05/13 01:15:14;;;;;;;17.48;15.88;;;10.60;99.90;;;;;;5116422;27;20482;-91
2023/05/13 01:18:06;;;;;;;18.30;16.58;;;10.60;99.90;;;;;;5114426;27;20397;-91
2023/05/13 01:20:33;;;;;;;18.70;16.90;;;10.60;99.90;;;;;;5116449;27;20437;-92
2023/05/13 01:22:59;;;;;;;17.85;16.00;;;10.90;99.90;;;;;;5114738;27;20408;-92
2023/05/13 01:25:24;;;;;;;17.48;15.88;;;10.60;99.90;;;;;;5111748;27;20427;-91
2023/05/13 01:27:51;;;;;;;17.93;16.20;;;10.60;99.90;;;;;;5113215;27;20468;-91
2023/05/13 01:30:18;;;;;;;18.20;16.50;;;10.50;99.90;;;;;;5110993;27;20476;-91
2023/05/13 01:32:44;;;;;;;17.53;15.70;;;10.70;99.90;;;;;;5112556;27;20387;-91
2023/05/13 01:35:10;;;;;;;17.67;15.90;;;10.50;99.90;;;;;;5110734;27;20398;-91
2023/05/13 01:37:37;;;;;;;17.65;15.95;;;10.50;99.90;;;;;;5112936;27;20405;-92
2023/05/13 01:40:06;;;;;;;17.13;15.43;;;10.50;99.90;;;;;;5110640;27;20893;-92
2023/05/13 01:42:33;;;;;;;17.15;15.63;;;10.50;99.90;;;;;;5112207;27;20849;-90
2023/05/13 01:44:59;;;;;;;17.80;15.98;;;10.40;99.90;;;;;;5112089;27;20423;-92
2023/05/13 01:47:25;;;;;;;16.27;14.75;;;10.70;99.90;;;;;;5110556;27;20548;-91
2023/05/13 01:49:51;;;;;;;16.73;15.02;;;10.40;99.90;;;;;;5112383;27;20395;-91
2023/05/13 01:52:17;;;;;;;17.08;14.60;;;10.40;99.90;;;;;;5110176;27;20413;-90
2023/05/13 01:54:42;;;;;;;17.00;15.37;;;10.40;99.90;;;;;;5112738;27;20742;-90
2023/05/13 01:57:08;;;;;;;15.73;13.80;;;10.30;99.90;;;;;;5110324;27;20805;-90
2023/05/13 01:59:33;;;;;;;17.20;14.40;;;10.30;99.90;;;;;;5112178;27;20975;-90
2023/05/13 02:01:59;;;;;;;16.67;14.97;;;10.30;99.90;;;;;;5110910;27;20414;-92
2023/05/13 02:04:25;;;;;;;16.67;15.00;;;10.30;99.90;;;;;;5111363;27;20793;-92
2023/05/13 02:06:50;;;;;;;16.57;14.87;;;10.30;99.90;;;;;;5111987;27;20382;-91
2023/05/13 02:09:16;;;;;;;16.50;14.70;;;10.30;99.90;;;;;;5110037;27;20904;-90
2023/05/13 02:11:44;;;;;;;15.93;14.33;;;10.20;99.90;;;;;;5111954;27;20407;-90
2023/05/13 02:14:09;;;;;;;15.50;13.93;;;10.20;99.90;;;;;;5109599;27;20394;-92
2023/05/13 02:16:35;;;;;;;15.70;14.20;;;10.20;99.90;;;;;;5112223;27;20489;-92
2023/05/13 02:19:00;;;;;;;16.17;14.57;;;10.20;99.90;;;;;;5109801;27;20501;-90
2023/05/13 02:21:26;;;;;;;16.65;14.25;;;10.50;99.90;;;;;;5111255;27;20395;-91
2023/05/13 02:23:52;;;;;;;16.17;14.67;;;10.20;99.90;;;;;;5113055;27;20454;-91
2023/05/13 02:26:17;;;;;;;15.73;14.07;;;10.20;99.90;;;;;;5110291;27;20483;-91
2023/05/13 02:28:43;;;;;;;15.75;14.10;;;10.10;99.90;;;;;;5112257;27;20417;-91
2023/05/13 02:31:09;;;;;;;16.50;14.30;;;10.20;99.90;;;;;;5109441;27;20387;-91
2023/05/13 02:33:34;;;;;;;16.80;15.10;;;10.10;99.90;;;;;;5111102;27;20457;-89
2023/05/13 02:36:00;;;;;;;16.45;14.75;;;10.10;99.90;;;;;;5109189;27;20409;-91
2023/05/13 02:38:26;;;;;;;17.17;15.60;;;10.10;99.90;;;;;;5111355;27;20762;-91
2023/05/13 02:40:51;;;;;;;17.70;15.90;;;10.10;99.90;;;;;;5110083;27;20493;-91
2023/05/13 02:43:17;;;;;;;17.60;15.80;;;10.00;99.90;;;;;;5110799;27;20403;-90
2023/05/13 02:45:42;;;;;;;17.77;15.80;;;10.10;99.90;;;;;;5111322;27;20487;-91
2023/05/13 02:48:09;;;;;;;17.95;16.05;;;10.10;99.90;;;;;;5109417;27;20394;-91
2023/05/13 02:50:35;;;;;;;17.48;15.90;;;10.10;99.90;;;;;;5111321;27;20888;-91
2023/05/13 02:53:01;;;;;;;17.67;15.90;;;10.20;99.90;;;;;;5109114;27;20386;-91
2023/05/13 02:55:26;;;;;;;17.15;15.50;;;10.10;99.90;;;;;;5111438;27;20928;-90
2023/05/13 02:57:52;;;;;;;17.03;15.33;;;10.10;99.90;;;;;;5109429;27;20418;-90
2023/05/13 03:00:18;;;;;;;17.55;15.85;;;10.10;99.90;;;;;;5111223;27;20389;-90
2023/05/13 03:02:43;;;;;;;18.45;16.60;;;10.00;99.90;;;;;;5110550;27;20395;-91
2023/05/13 03:05:09;;;;;;;16.60;14.97;;;10.00;99.90;;;;;;5109894;27;20776;-89
2023/05/13 03:07:35;;;;;;;17.52;15.73;;;10.30;99.90;;;;;;5111081;27;20911;-90
2023/05/13 03:10:00;;;;;;;17.20;15.50;;;10.00;99.90;;;;;;5108915;27;20391;-91
2023/05/13 03:12:26;;;;;;;18.20;16.37;;;10.10;99.90;;;;;;5111262;27;20509;-91
2023/05/13 03:14:52;;;;;;;17.20;15.40;;;10.20;99.90;;;;;;5108996;27;20393;-91
2023/05/13 03:17:17;;;;;;;18.40;16.23;;;9.90;99.90;;;;;;5111022;28;20467;-91
2023/05/13 03:19:43;;;;;;;19.67;16.13;;;9.90;99.90;;;;;;5109130;27;20436;-91
2023/05/13 03:22:08;;;;;;;18.50;16.48;;;9.90;99.90;;;;;;5110421;28;20834;-91
2023/05/13 03:24:34;;;;;;;17.43;15.77;;;9.90;99.90;;;;;;5109983;28;20941;-91
2023/05/13 03:27:00;;;;;;;17.13;15.43;;;9.90;99.90;;;;;;5109327;28;20403;-92
2023/05/13 03:29:25;;;;;;;17.20;15.40;;;9.90;99.90;;;;;;5110977;28;20399;-90
2023/05/13 03:31:52;;;;;;;17.52;15.55;;;9.90;99.90;;;;;;5108600;28;20911;-92
2023/05/13 03:34:18;;;;;;;16.90;15.20;;;9.90;99.90;;;;;;5111033;28;20888;-92
2023/05/13 03:36:43;;;;;;;16.52;14.82;;;9.90;99.90;;;;;;5108779;28;20406;-91
2023/05/13 03:39:09;;;;;;;16.40;14.77;;;9.90;99.90;;;;;;5110528;28;20601;-90
2023/05/13 03:41:35;;;;;;;16.73;15.03;;;9.90;99.90;;;;;;5109782;28;20422;-91
2023/05/13 03:44:01;;;;;;;17.73;15.75;;;9.90;99.90;;;;;;5109633;28;20423;-90
2023/05/13 03:46:26;;;;;;;17.00;15.30;;;9.90;99.90;;;;;;5112846;27;20407;-90
2023/05/13 03:48:54;;;;;;;16.10;14.63;;;9.90;99.90;;;;;;5112489;27;20488;-91
2023/05/13 03:51:20;;;;;;;17.10;15.33;;;9.80;99.90;;;;;;5114432;27;20406;-91
2023/05/13 03:53:46;;;;;;;16.20;14.75;;;9.80;99.90;;;;;;5112239;27;20398;-90
2023/05/13 03:56:12;;;;;;;16.97;15.30;;;9.80;99.90;;;;;;5114428;27;20406;-91
2023/05/13 03:58:38;;;;;;;16.83;15.30;;;9.80;99.90;;;;;;5112820;27;20427;-91
2023/05/13 04:01:04;;;;;;;16.47;14.80;;;9.80;99.90;;;;;;5114167;27;20437;-92
2023/05/13 04:03:30;;;;;;;17.23;15.52;;;9.80;99.90;;;;;;5114069;27;20399;-90
2023/05/13 04:05:56;;;;;;;17.00;15.38;;;9.80;99.90;;;;;;5112479;27;20467;-90
2023/05/13 04:08:21;;;;;;;16.65;15.02;;;9.80;99.90;;;;;;5114701;27;20497;-90
2023/05/13 04:10:47;;;;;;;16.47;14.90;;;9.80;99.90;;;;;;5111819;27;20450;-91
2023/05/13 04:13:12;;;;;;;17.67;15.80;;;9.90;99.90;;;;;;5114319;27;20894;-91
2023/05/13 04:15:38;;;;;;;18.00;16.10;;;9.90;99.90;;;;;;5112036;27;20390;-90
2023/05/13 04:18:04;;;;;;;18.47;15.80;;;9.90;99.90;;;;;;5114225;27;20429;-91
2023/05/13 04:20:29;;;;;;;16.25;14.77;;;10.00;99.90;;;;;;5112789;27;20946;-91
2023/05/13 04:22:55;;;;;;;17.88;16.05;;;10.00;99.90;;;;;;5113019;27;20435;-90
2023/05/13 04:25:21;;;;;;;16.67;14.97;;;10.10;99.90;;;;;;5114106;27;20422;-91
2023/05/13 04:27:46;;;;;;;16.92;15.32;;;10.10;99.90;;;;;;5112064;27;20422;-92
2023/05/13 04:30:12;;;;;;;16.10;14.70;;;10.20;99.90;;;;;;5113896;27;20382;-91
2023/05/13 04:32:38;;;;;;;18.35;16.50;;;10.30;99.90;;;;;;5112039;27;20423;-91
2023/05/13 04:35:06;;;;;;;17.42;15.65;;;10.30;99.90;;;;;;5114050;27;20753;-92
2023/05/13 04:37:32;;;;;;;15.88;14.30;;;10.40;99.90;;;;;;5111984;27;20856;-91
2023/05/13 04:39:57;;;;;;;17.13;15.38;;;10.50;99.90;;;;;;5113681;27;20485;-91
2023/05/13 04:42:23;;;;;;;17.77;15.37;;;10.60;99.90;;;;;;5113320;27;20413;-91
2023/05/13 04:44:48;;;;;;;15.85;14.38;;;10.80;99.90;;;;;;5112557;27;20419;-90
2023/05/13 04:47:14;;;;;;;17.67;15.93;;;10.80;99.90;;;;;;5113777;27;20399;-91
2023/05/13 04:49:40;;;;;;;15.90;14.40;;;11.00;99.90;;;;;;5111472;27;20402;-91
2023/05/13 04:52:06;;;;;;;16.33;14.70;;;11.10;99.90;;;;;;5130587;27;20451;-91
2023/05/13 04:54:34;;;;;;;17.08;15.48;;;11.20;99.90;;;;;;5111334;27;20503;-92
2023/05/13 04:57:00;;;;;;;17.40;14.68;;;11.30;99.90;;;;;;5113046;27;20394;-92
2023/05/13 04:59:26;;;;;;;15.80;14.10;;;11.40;99.90;;;;;;5112242;27;20407;-91
2023/05/13 05:01:52;;;;;;;16.60;14.90;;;11.50;99.90;;;;;;5112846;27;20409;-91
2023/05/13 05:04:17;;;;;;;15.47;13.90;;;11.60;99.90;;;;;;5113538;27;20471;-90
2023/05/13 05:06:43;;;;;;;15.13;12.63;;;12.00;99.90;;;;;;5111014;27;20406;-91
2023/05/13 05:09:08;;;;;;;15.05;13.05;;;11.90;99.90;;;;;;5113413;27;20936;-91
2023/05/13 05:11:34;;;;;;;14.53;12.93;;;12.20;99.90;;;;;;5110688;27;20485;-91
2023/05/13 05:14:00;;;;;;;14.50;12.05;;;12.10;99.90;;;;;;5113235;27;20730;-91
2023/05/13 05:16:25;;;;;;;14.53;11.70;;;12.20;99.90;;;;;;5111385;27;20473;-91
2023/05/13 05:18:51;;;;;;;13.57;12.23;;;12.30;99.90;;;;;;5112812;27;20765;-91
2023/05/13 05:21:17;;;;;;;14.77;11.60;;;12.50;99.90;;;;;;5112110;27;20459;-91
2023/05/13 05:23:43;;;;;;;12.07;10.50;;;12.60;99.90;;;;;;5113734;27;20402;-90
2023/05/13 05:26:08;;;;;;;11.60;10.40;;;13.00;99.90;;;;;;5116564;27;20922;-91
2023/05/13 05:28:35;;;;;;;12.77;10.63;;;12.90;99.90;;;;;;5114296;27;20400;-92
2023/05/13 05:31:01;;;;;;;11.45;9.55;;;13.00;99.90;;;;;;5116266;27;20413;-92
2023/05/13 05:33:27;;;;;;;11.13;9.82;;;13.10;99.90;;;;;;5113673;27;20400;-91
2023/05/13 05:35:53;;;;;;;12.07;10.20;;;13.20;99.90;;;;;;5116005;27;20488;-91
2023/05/13 05:38:18;;;;;;;10.23;9.07;;;13.40;99.90;;;;;;5114616;27;20548;-91
2023/05/13 05:40:45;;;;;;;10.30;9.18;;;13.50;99.90;;;;;;5115529;27;20408;-91
2023/05/13 05:43:11;;;;;;;10.90;9.43;;;13.40;99.90;;;;;;5115897;27;20434;-91
2023/05/13 05:45:37;;;;;;;10.57;9.05;;;13.70;99.90;;;;;;5113707;27;20498;-92
2023/05/13 05:48:04;;;;;;;11.57;9.60;;;13.70;99.90;;;;;;5115753;27;20393;-92
2023/05/13 05:50:30;;;;;;;10.95;9.27;;;13.80;99.90;;;;;;5113586;27;20404;-92
2023/05/13 05:52:56;;;;;;;10.10;8.95;;;13.90;99.90;;;;;;5115734;27;20480;-90
2023/05/13 05:55:21;;;;;;;13.18;9.23;;;14.00;99.90;;;;;;5113990;27;20497;-93
2023/05/13 05:57:48;;;;;;;11.20;9.17;;;14.30;99.90;;;;;;5115384;27;20405;-92
2023/05/13 06:00:14;;;;;;;9.75;8.75;;;14.20;99.90;;;;;;5114700;27;20433;-92
2023/05/13 06:02:41;;;;;;;9.88;8.77;;;14.30;99.90;;;;;;5114007;27;20759;-92
2023/05/13 06:05:07;;;;;;;10.80;8.82;;;14.50;99.90;;;;;;5115460;27;20825;-91
2023/05/13 06:07:33;;;;;;;12.02;8.70;;;14.50;99.90;;;;;;5112900;27;20973;-91
2023/05/13 06:09:58;;;;;;;11.17;8.90;;;14.60;99.90;;;;;;5115108;27;20477;-92
2023/05/13 06:12:24;;;;;;;10.95;8.73;;;14.70;99.90;;;;;;5113221;27;20397;-92
2023/05/13 06:14:50;;;;;;;11.98;8.70;;;14.80;99.90;;;;;;5115488;27;20397;-92
2023/05/13 06:17:16;;;;;;;11.50;8.43;;;14.90;99.90;;;;;;5114144;27;20404;-91
2023/05/13 06:19:41;;;;;;;10.13;8.55;;;15.00;99.90;;;;;;5114422;27;20770;-91
2023/05/13 06:22:08;;;;;;;9.18;8.18;;;15.10;99.90;;;;;;5114993;27;20542;-92
2023/05/13 06:24:34;;;;;;;8.90;8.00;;;15.20;99.90;;;;;;5112915;27;20464;-91
2023/05/13 06:27:00;;;;;;;9.02;8.02;;;15.60;99.90;;;;;;5114821;27;20899;-91
2023/05/13 06:29:26;;;;;;;9.30;8.40;;;15.40;99.90;;;;;;5112959;27;20404;-92
2023/05/13 06:31:52;;;;;;;11.07;7.78;;;15.50;99.90;;;;;;5114994;27;20404;-92
2023/05/13 06:34:18;;;;;;;9.90;8.00;;;15.60;99.90;;;;;;5113343;27;20407;-92
2023/05/13 06:36:43;;;;;;;10.23;7.38;;;15.90;99.90;;;;;;5114880;27;20419;-92
2023/05/13 06:39:10;;;;;;;8.60;7.30;;;15.90;99.90;;;;;;5113826;27;20409;-92
2023/05/13 06:41:37;;;;;;;10.25;7.40;;;16.10;99.90;;;;;;5113324;27;20969;-92
2023/05/13 06:44:03;;;;;;;9.10;7.50;;;15.90;99.90;;;;;;5114805;27;20420;-91
2023/05/13 06:46:29;;;;;;;9.50;7.28;;;16.00;99.90;;;;;;5112838;27;20421;-91
2023/05/13 06:48:55;;;;;;;7.63;6.80;;;16.30;99.90;;;;;;5114732;27;20470;-91
2023/05/13 06:51:21;;;;;;;8.52;7.13;;;16.40;99.90;;;;;;5112602;27;20454;-92
2023/05/13 06:53:47;;;;;;;10.03;7.37;;;16.30;99.90;;;;;;5114513;27;20396;-92
2023/05/13 06:56:13;;;;;;;9.53;7.27;;;16.50;99.90;;;;;;5113025;27;20430;-90
2023/05/13 06:58:38;;;;;;;8.95;6.90;;;16.50;99.90;;;;;;5113735;27;20899;-92
2023/05/13 07:01:04;;;;;;;9.70;7.00;;;16.60;99.90;;;;;;5114365;27;20413;-92
2023/05/13 07:03:30;;;;;;;9.77;6.93;;;17.00;99.90;;;;;;5112367;27;20426;-92
2023/05/13 07:05:56;;;;;;;8.27;6.65;;;17.10;99.90;;;;;;5114648;27;20417;-90
2023/05/13 07:08:21;;;;;;;8.97;6.60;;;17.10;99.90;;;;;;5112125;27;20405;-91
2023/05/13 07:10:47;;;;;;;8.15;6.22;;;17.20;99.90;;;;;;5114220;27;20465;-91
2023/05/13 07:13:13;;;;;;;9.20;6.00;;;17.10;99.90;;;;;;5112184;27;20901;-92
2023/05/13 07:15:39;;;;;;;8.98;6.00;;;17.30;99.90;;;;;;5114136;27;20896;-90
2023/05/13 07:18:06;;;;;;;9.10;6.05;;;17.50;99.90;;;;;;5113220;27;20400;-91
2023/05/13 07:20:32;;;;;;;10.68;6.22;;;17.60;99.90;;;;;;5112871;27;20409;-92
2023/05/13 07:22:57;;;;;;;7.00;6.07;;;17.40;99.90;;;;;;5114119;27;20423;-92
2023/05/13 07:25:23;;;;;;;10.60;6.60;;;17.60;99.90;;;;;;5111745;27;20468;-91
2023/05/13 07:27:49;;;;;;;10.25;6.70;;;17.60;99.90;;;;;;5114406;27;20393;-91
2023/05/13 07:30:14;;;;;;;9.47;6.30;;;17.70;99.90;;;;;;5111770;27;20485;-91
2023/05/13 07:32:40;;;;;;;9.07;6.97;;;18.20;99.90;;;;;;5114205;27;20409;-92
2023/05/13 07:35:07;;;;;;;8.43;6.30;;;17.90;99.90;;;;;;5112783;27;20428;-90
2023/05/13 07:37:32;;;;;;;10.00;6.35;;;18.00;99.90;;;;;;5113654;27;20408;-92
2023/05/13 07:39:58;;;;;;;8.73;6.60;;;18.30;99.90;;;;;;5113660;27;20404;-91
2023/05/13 07:42:26;;;;;;;8.30;6.30;;;18.40;99.90;;;;;;5112189;27;20500;-91
2023/05/13 07:44:51;;;;;;;7.00;6.28;;;18.20;99.90;;;;;;5114148;27;20428;-91
2023/05/13 07:47:17;;;;;;;8.90;6.27;;;18.20;99.90;;;;;;5112392;27;20401;-92
2023/05/13 07:49:43;;;;;;;8.07;5.85;;;18.40;99.90;;;;;;5114126;27;20412;-93
2023/05/13 07:52:08;;;;;;;9.38;6.32;;;18.50;99.90;;;;;;5111755;27;20478;-91
2023/05/13 07:54:34;;;;;;;6.80;5.80;;;18.70;99.90;;;;;;5114196;27;20397;-91
2023/05/13 07:57:00;;;;;;;9.32;6.55;;;18.60;99.90;;;;;;5113147;27;20413;-91
2023/05/13 07:59:25;;;;;;;6.90;5.77;;;18.90;99.90;;;;;;5113111;27;20389;-91
2023/05/13 08:01:51;;;;;;;8.13;6.00;;;18.90;99.90;;;;;;5113954;27;20411;-90
2023/05/13 08:04:17;;;;;;;7.40;5.68;;;19.10;99.90;;;;;;5111958;27;20933;-92
2023/05/13 08:06:42;;;;;;;8.57;6.28;;;19.40;99.90;;;;;;5113629;27;20799;-92
2023/05/13 08:09:11;;;;;;;8.07;5.90;;;19.20;99.90;;;;;;5111740;27;20427;-92
2023/05/13 08:11:37;;;;;;;8.20;5.45;;;19.20;99.50;;;;;;5114338;27;20440;-91
2023/05/13 08:14:03;;;;;;;8.10;6.00;;;19.30;99.90;;;;;;5112009;27;21294;-91
2023/05/13 08:16:29;;;;;;;8.15;6.15;;;19.40;99.90;;;;;;5113277;27;20424;-92
2023/05/13 08:18:56;;;;;;;7.18;5.50;;;19.70;99.90;;;;;;5113824;27;20405;-90
2023/05/13 08:21:22;;;;;;;7.72;5.57;;;19.60;99.90;;;;;;5111541;27;20424;-91
2023/05/13 08:23:50;;;;;;;8.10;5.45;;;20.00;99.90;;;;;;5113430;27;20495;-92
2023/05/13 08:26:15;;;;;;;8.20;5.80;;;19.80;99.00;;;;;;5111429;27;20397;-92
2023/05/13 08:28:41;;;;;;;7.27;5.40;;;19.80;98.10;;;;;;5114089;27;20905;-92
2023/05/13 08:31:07;;;;;;;6.60;5.05;;;19.80;94.20;;;;;;5111627;27;20397;-92
2023/05/13 08:33:33;;;;;;;7.30;5.20;;;19.90;97.80;;;;;;5116994;27;20409;-91
2023/05/13 08:35:59;;;;;;;6.75;5.45;;;20.00;98.30;;;;;;5116127;27;20432;-92
2023/05/13 08:38:25;;;;;;;5.73;5.00;;;20.10;93.80;;;;;;5116456;27;20407;-93
2023/05/13 08:40:51;;;;;;;6.63;4.93;;;20.30;98.80;;;;;;5117338;27;20405;-91
2023/05/13 08:43:18;;;;;;;7.22;5.07;;;20.10;96.30;;;;;;5114802;27;20393;-92
2023/05/13 08:45:46;;;;;;;7.25;4.78;;;20.20;96.20;;;;;;5117368;27;20419;-92
2023/05/13 08:48:14;;;;;;;6.97;4.75;;;20.30;92.80;;;;;;5114767;27;20506;-91
2023/05/13 08:50:40;;;;;;;6.30;4.93;;;20.60;93.50;;;;;;5116948;27;20397;-91
2023/05/13 08:53:06;;;;;;;6.45;5.22;;;20.70;93.40;;;;;;5115515;27;20442;-92
2023/05/13 08:55:32;;;;;;;7.35;4.72;;;20.80;92.90;;;;;;5116164;27;20401;-92
2023/05/13 08:57:58;;;;;;;4.93;4.43;;;20.60;88.10;;;;;;5117511;27;20405;-92
2023/05/13 09:00:24;;;;;;;7.38;4.80;;;21.00;87.40;;;;;;5114843;27;20401;-92
2023/05/13 09:02:50;;;;;;;6.30;4.53;;;21.00;85.60;;;;;;5117353;27;20762;-91
2023/05/13 09:05:17;;;;;;;6.88;4.70;;;21.10;82.10;;;;;;5114384;27;20417;-91
2023/05/13 09:07:42;;;;;;;6.60;4.40;;;20.80;90.50;;;;;;5116560;27;20393;-92
2023/05/13 09:10:09;;;;;;;6.90;4.90;;;20.90;87.80;;;;;;5114521;27;20417;-92
2023/05/13 09:12:44;;;;;;;7.95;4.40;;;21.00;83.00;;;;;;5116670;27;20405;-92
2023/05/13 09:15:11;;;;;;;7.57;4.85;;;21.30;80.40;;;;;;5116509;27;20869;-91
2023/05/13 09:17:42;;;;;;;7.82;4.60;;;21.10;82.00;;;;;;5114402;27;20426;-92
2023/05/13 09:20:13;;;;;;;6.68;4.78;;;21.10;78.20;;;;;;5116467;27;20401;-92
2023/05/13 09:22:47;;;;;;;9.02;5.70;;;21.20;89.20;;;;;;5114675;27;20911;-92
2023/05/13 09:25:15;;;;;;;7.40;5.47;;;21.30;77.30;;;;;;5097719;28;20517;-92
2023/05/13 09:27:46;;;;;;;10.35;5.20;;;21.40;90.20;;;;;;5090770;28;20413;-91
2023/05/13 09:30:12;;;;;;;7.18;5.03;;;21.50;88.70;;;;;;5091315;28;21039;-91
2023/05/13 09:32:39;;;;;;;7.07;4.70;;;21.60;84.90;;;;;;5092286;28;20476;-93
2023/05/13 09:35:15;;;;;;;6.53;4.85;;;21.80;90.30;;;;;;5090238;28;20397;-92
2023/05/13 09:37:45;;;;;;;7.93;5.30;;;21.90;90.40;;;;;;5092322;28;20913;-92
2023/05/13 09:40:13;;;;;;;7.03;5.15;;;22.00;88.70;;;;;;5090328;28;21056;-90
2023/05/13 09:42:43;;;;;;;7.55;5.20;;;21.90;90.10;;;;;;5092093;28;20413;-91
2023/05/13 09:45:11;;;;;;;8.60;5.43;;;22.30;86.00;;;;;;5090725;28;20512;-92
2023/05/13 09:47:37;;;;;;;7.32;5.35;;;22.50;82.00;;;;;;5091318;28;20396;-92
2023/05/13 09:50:03;;;;;;;8.20;5.53;;;22.50;77.80;;;;;;5091844;28;20412;-91
2023/05/13 09:52:30;;;;;;;6.82;5.20;;;22.60;90.50;;;;;;5089570;28;20411;-92
2023/05/13 09:54:58;;;;;;;9.38;6.07;;;22.70;84.40;;;;;;5091996;28;20393;-92
2023/05/13 09:57:27;;;;;;;8.35;5.95;;;23.00;76.40;;;;;;5089663;28;20491;-92
2023/05/13 09:59:59;;;;;;;9.30;6.03;;;22.70;80.50;;;;;;5091922;28;20491;-91
2023/05/13 10:02:25;;;;;;;8.35;6.07;;;22.90;74.40;;;;;;5090630;28;20465;-92
2023/05/13 10:04:53;;;;;;;7.90;5.97;;;23.10;69.00;;;;;;5090722;28;20816;-93
2023/05/13 10:07:23;;;;;;;6.63;5.17;;;23.30;78.50;;;;;;5091620;28;20449;-93
2023/05/13 10:09:52;;;;;;;8.82;6.07;;;23.50;80.40;;;;;;5089706;28;20821;-92
2023/05/13 10:12:30;;;;;;;9.63;5.67;;;23.80;72.70;;;;;;5091514;28;20408;-92
2023/05/13 10:14:57;;;;;;;7.32;5.35;;;23.90;70.50;;;;;;5089230;28;20398;-91
2023/05/13 10:17:24;;;;;;;8.23;5.40;;;24.00;68.90;;;;;;5091315;28;20405;-93
2023/05/13 10:19:53;;;;;;;7.57;5.22;;;24.20;64.60;;;;;;5090975;28;20478;-93
2023/05/13 10:22:28;;;;;;;8.70;5.55;;;24.20;66.70;;;;;;5089794;28;20403;-91
2023/05/13 10:24:56;;;;;;;7.75;4.72;;;24.30;65.20;;;;;;5103507;27;20483;-91
2023/05/13 10:27:26;;;;;;;7.80;5.00;;;24.60;61.30;;;;;;5109855;27;20402;-93
2023/05/13 10:29:53;;;;;;;8.20;4.97;;;24.90;59.60;;;;;;5111355;27;20402;-93
2023/05/13 10:32:19;;;;;;;6.57;4.70;;;25.30;57.50;;;;;;5109564;27;20494;-92
2023/05/13 10:34:45;;;;;;;6.35;4.68;;;25.60;57.70;;;;;;5111393;27;20399;-94
2023/05/13 10:37:24;;;;;;;6.85;5.03;;;25.90;53.70;;;;;;5110785;27;20398;-92
2023/05/13 10:40:30;;;;;;;6.30;5.00;;;26.00;54.40;;;;;;5109690;27;20950;-92
2023/05/13 10:43:21;;;;;;;7.13;5.60;;;26.40;54.40;;;;;;5111403;27;20459;-92
2023/05/13 10:45:49;;;;;;;6.35;5.75;;;26.40;49.90;;;;;;5110156;27;20423;-91
2023/05/13 10:48:15;;;;;;;6.93;5.18;;;26.20;50.10;;;;;;5109907;27;20401;-92
2023/05/13 10:50:56;;;;;;;6.90;5.63;;;26.40;53.10;;;;;;5111786;27;20394;-92
2023/05/13 10:53:23;;;;;;;7.63;6.10;;;26.50;53.80;;;;;;5108952;27;20810;-91
2023/05/13 10:55:59;;;;;;;7.18;6.47;;;26.60;51.40;;;;;;5110877;27;20795;-93
2023/05/13 10:58:30;;;;;;;8.00;5.87;;;27.00;50.70;;;;;;5109697;27;20760;-92
2023/05/13 11:01:24;;;;;;;6.27;5.63;;;27.20;51.70;;;;;;5110760;27;20393;-92
2023/05/13 11:03:56;;;;;;;7.07;5.63;;;27.20;49.80;;;;;;5110869;27;20416;-92
2023/05/13 11:06:28;;;;;;;7.68;5.65;;;27.20;48.40;;;;;;5108903;27;20425;-91
2023/05/13 11:08:54;;;;;;;6.50;5.82;;;27.10;51.20;;;;;;5111021;27;20402;-90
2023/05/13 11:11:26;;;;;;;5.93;5.33;;;27.20;49.60;;;;;;5110517;27;20482;-92
2023/05/13 11:13:54;;;;;;;6.47;5.72;;;27.50;52.60;;;;;;5110737;27;20510;-91
2023/05/13 11:16:22;;;;;;;6.68;5.47;;;27.80;47.70;;;;;;5110861;28;20438;-92
2023/05/13 11:18:48;;;;;;;7.00;4.90;;;28.10;48.40;;;;;;5109353;27;20394;-92
2023/05/13 11:21:13;;;;;;;7.10;5.20;;;28.10;47.30;;;;;;5110588;28;20391;-93
2023/05/13 11:23:55;;;;;;;6.45;4.65;;;28.40;46.40;;;;;;5110242;27;20467;-92
2023/05/13 11:26:21;;;;;;;6.28;5.25;;;28.50;48.40;;;;;;5114162;27;20409;-93
2023/05/13 11:28:56;;;;;;;6.57;5.30;;;28.50;43.20;;;;;;5112673;27;20489;-93
2023/05/13 11:31:23;;;;;;;6.63;4.97;;;28.30;46.80;;;;;;5113559;27;20467;-92
2023/05/13 11:34:15;;;;;;;5.45;4.82;;;28.30;47.60;;;;;;5114090;27;20413;-92
2023/05/13 11:36:44;;;;;;;6.03;4.68;;;28.30;45.30;;;;;;5108734;27;20428;-91
2023/05/13 11:39:16;;;;;;;6.88;4.88;;;28.20;45.20;;;;;;5114172;27;20405;-93
2023/05/13 11:41:46;;;;;;;6.82;4.43;;;28.00;44.60;;;;;;5112520;27;20831;-92
2023/05/13 11:44:13;;;;;;;5.78;4.60;;;27.90;47.50;;;;;;5113358;27;20420;-91
2023/05/13 11:47:00;;;;;;;6.10;5.17;;;28.40;46.20;;;;;;5113411;27;20388;-90
2023/05/13 11:49:39;;;;;;;6.57;5.10;;;28.50;46.60;;;;;;5111900;27;20458;-92
2023/05/13 11:52:11;;;;;;;6.15;4.63;;;28.20;45.70;;;;;;5113584;27;20979;-92
2023/05/13 11:54:43;;;;;;;7.60;5.20;;;28.30;49.00;;;;;;5111871;27;20413;-93
2023/05/13 11:57:21;;;;;;;7.38;5.22;;;28.60;48.50;;;;;;5114073;27;20405;-89
2023/05/13 12:00:00;;;;;;;6.55;4.85;;;29.00;46.10;;;;;;5113969;27;20936;-91
2023/05/13 12:02:32;;;;;;;7.65;6.00;;;29.10;47.50;;;;;;5111831;27;20493;-92
2023/05/13 12:05:05;;;;;;;6.15;5.32;;;29.00;44.70;;;;;;5113624;27;20425;-93
2023/05/13 12:07:32;;;;;;;7.95;4.60;;;28.80;46.00;;;;;;5114221;27;20400;-93
2023/05/13 12:10:00;;;;;;;5.35;4.22;;;29.10;48.60;;;;;;5117707;27;20940;-91
2023/05/13 12:12:28;;;;;;;8.55;4.22;;;29.50;46.90;;;;;;5117242;27;20409;-92
2023/05/13 12:14:58;;;;;;;5.47;4.03;;;30.00;46.60;;;;;;5116607;27;20393;-91
2023/05/13 12:17:24;;;;;;;5.33;3.90;;;30.50;42.70;;;;;;5118015;27;20389;-93
2023/05/13 12:20:12;;;;;;;5.63;3.75;;;30.40;40.90;;;;;;5115761;27;20416;-92
2023/05/13 12:22:44;;;;;;;7.40;4.63;;;30.70;41.80;;;;;;5117672;27;20397;-92
2023/05/13 12:25:31;;;;;;;6.90;4.53;;;30.60;42.10;;;;;;5115456;27;20460;-91
2023/05/13 12:28:10;;;;;;;5.78;3.90;;;30.10;42.10;;;;;;5116529;27;20441;-92
2023/05/13 12:30:38;;;;;;;5.60;3.70;;;30.10;42.20;;;;;;5116955;27;20442;-93
2023/05/13 12:33:04;;;;;;;5.68;4.22;;;30.20;45.60;;;;;;5115364;27;20428;-92
2023/05/13 12:35:31;;;;;;;6.15;5.25;;;30.60;42.30;;;;;;5117131;27;20404;-93
2023/05/13 12:38:04;;;;;;;6.70;4.47;;;30.70;40.90;;;;;;5115312;27;20396;-92
2023/05/13 12:40:30;;;;;;;5.40;4.43;;;30.50;41.50;;;;;;5117016;27;20397;-92